Time;durP1;ratioP1;P1;durP2;ratioP2;P2;SDS_P1;SDS_P2;PMS_P1;PMS_P2;Temp;Humidity;BMP_temperature;BMP_pressure;BME280_temperature;BME280_humidity;BME280_pressure;Samples;Min_cycle;Max_cycle;Signal;HPM_P1;HPM_P2
2024/01/28 00:00:46;;;;;;;2.15;1.70;;;18.80;52.40;;;;;;4999418;28;20046;-49
2024/01/28 00:03:12;;;;;;;3.35;1.60;;;18.80;52.40;;;;;;4997760;28;20030;-48
2024/01/28 00:05:38;;;;;;;3.28;2.20;;;18.70;52.40;;;;;;4996502;28;20030;-48
2024/01/28 00:08:05;;;;;;;2.15;1.67;;;18.70;52.40;;;;;;4996707;28;20109;-53
2024/01/28 00:10:30;;;;;;;2.70;1.60;;;18.70;52.50;;;;;;4999319;28;20034;-48
2024/01/28 00:12:56;;;;;;;4.18;2.10;;;18.70;52.50;;;;;;4998367;28;20113;-49
2024/01/28 00:15:22;;;;;;;2.35;1.65;;;18.70;52.50;;;;;;4997745;28;20109;-48
2024/01/28 00:17:48;;;;;;;2.42;2.03;;;18.70;52.50;;;;;;4998617;28;20034;-50
2024/01/28 00:20:13;;;;;;;2.30;1.98;;;18.70;52.50;;;;;;4994534;28;20050;-48
2024/01/28 00:22:39;;;;;;;2.75;1.90;;;18.70;52.50;;;;;;4995725;28;20030;-46
2024/01/28 00:25:05;;;;;;;2.83;1.73;;;18.70;52.50;;;;;;4994920;28;20060;-46
2024/01/28 00:27:30;;;;;;;3.70;2.08;;;18.70;52.50;;;;;;4997893;28;20517;-48
2024/01/28 00:29:56;;;;;;;2.38;1.60;;;18.60;52.50;;;;;;4995083;28;20559;-51
2024/01/28 00:32:21;;;;;;;3.88;2.22;;;18.60;52.50;;;;;;4997447;28;20029;-45
2024/01/28 00:34:47;;;;;;;2.45;1.52;;;18.70;52.60;;;;;;4993559;28;20050;-49
2024/01/28 00:37:13;;;;;;;2.72;1.73;;;18.60;52.50;;;;;;4997973;28;20063;-48
2024/01/28 00:39:39;;;;;;;2.22;1.92;;;18.60;52.50;;;;;;4991984;28;20038;-50
2024/01/28 00:42:05;;;;;;;4.57;1.95;;;18.60;52.50;;;;;;4996318;28;20506;-51
2024/01/28 00:44:31;;;;;;;2.47;2.00;;;18.60;52.40;;;;;;4994143;28;20432;-52
2024/01/28 00:46:57;;;;;;;3.50;2.35;;;18.60;52.50;;;;;;4994797;28;20053;-49
2024/01/28 00:49:29;;;;;;;5.15;2.00;;;18.60;52.50;;;;;;4998095;28;20156;-47
2024/01/28 00:51:55;;;;;;;2.45;1.70;;;18.60;52.60;;;;;;4996038;28;20081;-50
2024/01/28 00:54:20;;;;;;;3.13;1.80;;;18.60;52.50;;;;;;4993172;28;20120;-49
2024/01/28 00:56:46;;;;;;;3.83;1.95;;;18.60;52.50;;;;;;4995538;28;20121;-49
2024/01/28 00:59:12;;;;;;;2.03;1.70;;;18.60;53.10;;;;;;4994507;28;20042;-49
2024/01/28 01:01:38;;;;;;;2.65;1.77;;;18.60;52.40;;;;;;4990927;28;20035;-49
2024/01/28 01:04:03;;;;;;;2.60;1.73;;;18.60;52.50;;;;;;4998335;28;20030;-49
2024/01/28 01:06:29;;;;;;;4.45;1.88;;;18.60;52.50;;;;;;4993322;28;20034;-48
2024/01/28 01:08:55;;;;;;;2.60;1.63;;;18.60;52.40;;;;;;4992144;28;20038;-54
2024/01/28 01:11:20;;;;;;;3.72;1.88;;;18.60;52.40;;;;;;4997699;28;20032;-46
2024/01/28 01:13:46;;;;;;;3.35;1.85;;;18.60;52.40;;;;;;4994224;28;20056;-46
2024/01/28 01:16:11;;;;;;;3.17;1.70;;;18.60;52.40;;;;;;4993365;28;20072;-48
2024/01/28 01:18:36;;;;;;;3.00;1.75;;;18.60;52.40;;;;;;4997637;28;20562;-53
2024/01/28 01:21:02;;;;;;;2.35;1.60;;;18.60;52.30;;;;;;4993874;28;20045;-51
2024/01/28 01:23:29;;;;;;;2.55;1.65;;;18.60;52.30;;;;;;4996190;28;20113;-46
2024/01/28 01:25:54;;;;;;;1.70;1.60;;;18.60;52.30;;;;;;4995605;28;20030;-54
2024/01/28 01:28:20;;;;;;;1.80;1.33;;;18.60;52.30;;;;;;5000169;28;20422;-46
2024/01/28 01:30:45;;;;;;;1.60;1.30;;;18.60;52.30;;;;;;4997013;28;20030;-47
2024/01/28 01:33:11;;;;;;;2.63;1.52;;;18.70;52.40;;;;;;4997013;28;20030;-52
2024/01/28 01:35:36;;;;;;;3.15;1.60;;;18.60;52.30;;;;;;4992403;28;20080;-46
2024/01/28 01:38:02;;;;;;;2.05;1.70;;;18.70;52.30;;;;;;4999063;28;20118;-54
2024/01/28 01:40:27;;;;;;;2.60;1.63;;;18.70;52.30;;;;;;4995352;28;20034;-52
2024/01/28 01:42:53;;;;;;;2.53;1.60;;;18.60;52.20;;;;;;4984054;28;20121;-54
2024/01/28 01:45:18;;;;;;;1.83;1.52;;;18.70;52.20;;;;;;4992296;28;20495;-46
2024/01/28 01:47:44;;;;;;;2.53;1.88;;;18.70;52.20;;;;;;4995629;28;20034;-48
2024/01/28 01:50:11;;;;;;;2.25;1.60;;;18.70;52.20;;;;;;4993650;28;20069;-54
2024/01/28 01:52:39;;;;;;;2.67;1.80;;;18.70;52.20;;;;;;4993904;28;20034;-49
2024/01/28 01:55:06;;;;;;;2.60;1.70;;;18.70;52.10;;;;;;4994385;28;20030;-57
2024/01/28 01:57:32;;;;;;;2.75;1.50;;;18.70;52.10;;;;;;4992653;28;20038;-48
2024/01/28 01:59:57;;;;;;;3.88;1.80;;;18.70;52.00;;;;;;4991438;28;20046;-50
2024/01/28 02:02:24;;;;;;;3.42;1.52;;;18.70;52.00;;;;;;4990673;28;20030;-48
2024/01/28 02:04:50;;;;;;;1.88;1.52;;;18.70;52.00;;;;;;4988204;28;20034;-49
2024/01/28 02:07:16;;;;;;;2.20;1.70;;;18.70;52.00;;;;;;4996318;28;20116;-48
2024/01/28 02:09:41;;;;;;;2.05;1.60;;;18.70;52.00;;;;;;4993560;28;20113;-49
2024/01/28 02:12:07;;;;;;;2.90;1.48;;;18.70;51.90;;;;;;4992676;28;20080;-48
2024/01/28 02:14:33;;;;;;;2.58;2.00;;;18.80;52.00;;;;;;5001020;28;20033;-51
2024/01/28 02:16:59;;;;;;;3.50;1.67;;;18.80;52.00;;;;;;4992694;28;20030;-50
2024/01/28 02:19:26;;;;;;;2.20;1.77;;;18.80;52.00;;;;;;4997664;28;20041;-52
2024/01/28 02:21:51;;;;;;;2.67;1.60;;;18.80;51.90;;;;;;4997381;28;20037;-48
2024/01/28 02:24:17;;;;;;;2.13;1.48;;;18.80;51.90;;;;;;4999732;28;20465;-50
2024/01/28 02:26:42;;;;;;;1.88;1.27;;;18.80;51.90;;;;;;4990187;28;20034;-49
2024/01/28 02:29:08;;;;;;;3.17;1.48;;;18.70;51.90;;;;;;4996365;28;20034;-49
2024/01/28 02:31:33;;;;;;;3.22;1.73;;;18.70;52.00;;;;;;4993169;28;20034;-48
2024/01/28 02:34:00;;;;;;;2.00;1.23;;;18.70;52.10;;;;;;4994623;28;20031;-53
2024/01/28 02:36:29;;;;;;;2.72;1.52;;;18.70;52.20;;;;;;4999731;28;20082;-48
2024/01/28 02:38:54;;;;;;;2.55;1.60;;;18.60;52.30;;;;;;4994112;28;20035;-50
2024/01/28 02:41:20;;;;;;;2.65;1.65;;;18.60;52.30;;;;;;4977062;28;20042;-48
2024/01/28 02:43:46;;;;;;;3.83;1.52;;;18.50;52.40;;;;;;4997075;28;20038;-48
2024/01/28 02:46:13;;;;;;;2.63;1.60;;;18.40;52.50;;;;;;4991077;28;20471;-48
2024/01/28 02:48:38;;;;;;;2.30;1.60;;;18.40;52.60;;;;;;4992902;28;20041;-48
2024/01/28 02:51:04;;;;;;;4.32;1.60;;;18.40;52.60;;;;;;4993950;28;20018;-48
2024/01/28 02:53:29;;;;;;;2.00;1.17;;;18.40;52.70;;;;;;4990398;28;20030;-50
2024/01/28 02:55:59;;;;;;;2.90;1.38;;;18.40;53.30;;;;;;4992732;28;20062;-50
2024/01/28 02:58:26;;;;;;;2.40;1.83;;;18.40;52.60;;;;;;4997034;28;20049;-56
2024/01/28 03:00:52;;;;;;;2.03;1.27;;;18.40;52.50;;;;;;4989450;28;20132;-53
2024/01/28 03:03:18;;;;;;;2.60;1.50;;;18.40;52.40;;;;;;4978797;28;20156;-51
2024/01/28 03:05:44;;;;;;;2.28;1.45;;;18.40;52.30;;;;;;4973349;28;20120;-50
2024/01/28 03:08:10;;;;;;;2.15;1.35;;;18.50;52.30;;;;;;4993271;28;20121;-55
2024/01/28 03:10:35;;;;;;;2.78;1.50;;;18.50;52.30;;;;;;4994559;28;20125;-51
2024/01/28 03:13:02;;;;;;;3.35;1.80;;;18.50;52.20;;;;;;4991437;28;20052;-51
2024/01/28 03:15:27;;;;;;;3.22;1.42;;;18.60;52.20;;;;;;4986020;28;20038;-50
2024/01/28 03:17:53;;;;;;;1.83;1.25;;;18.60;52.10;;;;;;4995019;28;20042;-50
2024/01/28 03:20:19;;;;;;;2.60;1.45;;;18.60;52.00;;;;;;4992168;28;20657;-49
2024/01/28 03:22:44;;;;;;;2.38;1.40;;;18.60;52.00;;;;;;4987496;28;20077;-50
2024/01/28 03:25:12;;;;;;;2.35;1.58;;;18.70;52.00;;;;;;4995873;28;20484;-47
2024/01/28 03:27:38;;;;;;;1.88;1.38;;;18.70;51.90;;;;;;4992908;28;20500;-47
2024/01/28 03:30:04;;;;;;;1.65;1.25;;;18.70;51.80;;;;;;4995035;28;20034;-50
2024/01/28 03:32:30;;;;;;;2.08;1.38;;;18.70;51.80;;;;;;4996331;28;20038;-48
2024/01/28 03:34:56;;;;;;;2.17;1.30;;;18.70;51.70;;;;;;5002375;28;20038;-50
2024/01/28 03:37:21;;;;;;;1.77;1.17;;;18.80;51.70;;;;;;4993758;28;21082;-50
2024/01/28 03:39:47;;;;;;;1.88;1.20;;;18.80;51.60;;;;;;4999122;28;20039;-50
2024/01/28 03:42:12;;;;;;;2.20;1.20;;;18.80;51.60;;;;;;4996405;28;20032;-47
2024/01/28 03:44:38;;;;;;;1.88;1.35;;;18.80;51.60;;;;;;4993430;28;20026;-50
2024/01/28 03:47:03;;;;;;;1.83;1.25;;;18.90;51.60;;;;;;4998847;28;20054;-48
2024/01/28 03:49:29;;;;;;;1.45;1.10;;;18.90;51.60;;;;;;4997735;28;20387;-50
2024/01/28 03:51:54;;;;;;;2.25;1.30;;;18.90;51.60;;;;;;4992065;28;20068;-49
2024/01/28 03:54:20;;;;;;;2.25;1.50;;;18.90;51.50;;;;;;5000796;28;20554;-49
2024/01/28 03:56:45;;;;;;;2.92;1.40;;;18.90;51.50;;;;;;4995475;28;20030;-48
2024/01/28 03:59:13;;;;;;;2.17;1.17;;;18.90;51.50;;;;;;4994006;28;20045;-47
2024/01/28 04:01:39;;;;;;;2.92;1.40;;;18.90;51.40;;;;;;4989966;28;20118;-47
2024/01/28 04:04:05;;;;;;;1.38;1.10;;;18.90;51.40;;;;;;4992364;28;20145;-52
2024/01/28 04:06:30;;;;;;;2.03;1.40;;;18.90;51.40;;;;;;4990427;28;20026;-53
2024/01/28 04:08:56;;;;;;;2.10;1.15;;;19.00;51.40;;;;;;4977452;28;20564;-51
2024/01/28 04:11:28;;;;;;;1.75;1.17;;;19.00;51.40;;;;;;4996568;28;20030;-52
2024/01/28 04:13:55;;;;;;;2.58;1.48;;;19.00;51.30;;;;;;4993811;28;20058;-48
2024/01/28 04:16:21;;;;;;;1.55;1.23;;;19.00;51.30;;;;;;4997598;28;20495;-49
2024/01/28 04:18:47;;;;;;;2.08;1.10;;;19.00;51.30;;;;;;4992164;28;20039;-48
2024/01/28 04:21:13;;;;;;;2.55;1.02;;;19.00;51.30;;;;;;5002675;28;20064;-52
2024/01/28 04:23:41;;;;;;;1.75;1.40;;;19.00;51.20;;;;;;4996561;28;20037;-53
2024/01/28 04:26:07;;;;;;;1.48;1.20;;;19.00;51.10;;;;;;5001973;28;20682;-53
2024/01/28 04:28:32;;;;;;;3.33;1.38;;;19.10;51.10;;;;;;5000611;28;20109;-48
2024/01/28 04:30:58;;;;;;;2.35;1.30;;;19.10;51.10;;;;;;4989346;28;20771;-51
2024/01/28 04:33:24;;;;;;;2.83;1.35;;;19.10;51.10;;;;;;4997938;28;20038;-47
2024/01/28 04:35:50;;;;;;;4.10;1.33;;;19.10;51.00;;;;;;5002483;28;20931;-47
2024/01/28 04:38:16;;;;;;;1.88;1.20;;;19.20;51.00;;;;;;4986364;28;20026;-47
2024/01/28 04:40:41;;;;;;;1.40;1.00;;;19.20;51.00;;;;;;4992309;28;20034;-48
2024/01/28 04:43:07;;;;;;;1.42;1.02;;;19.20;50.90;;;;;;4999788;28;20026;-48
2024/01/28 04:45:32;;;;;;;1.77;1.23;;;19.20;50.90;;;;;;4996838;28;20045;-48
2024/01/28 04:47:58;;;;;;;2.72;1.25;;;19.30;50.80;;;;;;4994216;28;20567;-49
2024/01/28 04:50:24;;;;;;;2.90;1.63;;;19.30;50.80;;;;;;4982254;28;20049;-50
2024/01/28 04:52:50;;;;;;;1.27;0.90;;;19.30;50.70;;;;;;4994136;28;20038;-49
2024/01/28 04:55:15;;;;;;;1.45;1.08;;;19.30;50.70;;;;;;4984084;28;20399;-49
2024/01/28 04:57:41;;;;;;;3.63;1.02;;;19.40;50.70;;;;;;4997696;28;20033;-48
2024/01/28 05:00:10;;;;;;;1.17;0.80;;;19.40;50.70;;;;;;4995183;28;20061;-54
2024/01/28 05:02:38;;;;;;;2.28;1.05;;;19.40;50.60;;;;;;4990965;28;20030;-49
2024/01/28 05:05:05;;;;;;;1.75;1.17;;;19.40;50.60;;;;;;4998567;28;20495;-48
2024/01/28 05:07:30;;;;;;;1.80;0.93;;;19.40;50.60;;;;;;4995568;28;20037;-49
2024/01/28 05:09:57;;;;;;;2.28;1.15;;;19.40;50.60;;;;;;4999304;28;20057;-50
2024/01/28 05:12:22;;;;;;;1.67;1.08;;;19.40;50.50;;;;;;5002516;28;20392;-53
2024/01/28 05:14:48;;;;;;;1.42;0.98;;;19.50;50.50;;;;;;4996264;28;20031;-52
2024/01/28 05:17:13;;;;;;;3.40;1.05;;;19.50;50.50;;;;;;5002367;28;20085;-51
2024/01/28 05:19:39;;;;;;;1.95;1.20;;;19.50;50.50;;;;;;4996733;28;20034;-49
2024/01/28 05:22:04;;;;;;;1.50;1.40;;;19.50;50.50;;;;;;4994640;28;20042;-49
2024/01/28 05:24:31;;;;;;;1.92;1.10;;;19.40;50.50;;;;;;4980421;28;20049;-47
2024/01/28 05:26:56;;;;;;;1.60;0.82;;;19.50;50.60;;;;;;4996006;28;20484;-49
2024/01/28 05:29:22;;;;;;;1.75;0.95;;;19.40;50.50;;;;;;4994044;28;20045;-51
2024/01/28 05:31:48;;;;;;;2.47;1.17;;;19.40;50.60;;;;;;4996675;28;20116;-50
2024/01/28 05:34:14;;;;;;;1.65;0.90;;;19.40;50.60;;;;;;4996680;28;20062;-52
2024/01/28 05:36:40;;;;;;;2.13;1.23;;;19.40;50.60;;;;;;4993469;28;20650;-49
2024/01/28 05:39:06;;;;;;;2.05;0.90;;;19.40;50.70;;;;;;4996603;28;20061;-50
2024/01/28 05:41:32;;;;;;;2.17;1.13;;;19.40;50.70;;;;;;4997306;28;20451;-48
2024/01/28 05:43:57;;;;;;;1.85;0.80;;;19.40;50.80;;;;;;4992904;28;20092;-51
2024/01/28 05:46:23;;;;;;;2.55;1.08;;;19.40;50.80;;;;;;4998273;28;20494;-48
2024/01/28 05:48:48;;;;;;;1.50;1.00;;;19.30;50.80;;;;;;4995509;28;20093;-49
2024/01/28 05:51:14;;;;;;;2.22;1.13;;;19.30;50.90;;;;;;4992975;28;21111;-49
2024/01/28 05:53:39;;;;;;;1.40;0.80;;;19.30;50.90;;;;;;4996921;28;20483;-49
2024/01/28 05:56:06;;;;;;;1.20;1.00;;;19.30;50.90;;;;;;4997338;28;20438;-50
2024/01/28 05:58:31;;;;;;;1.75;1.13;;;19.20;51.00;;;;;;4994469;28;20096;-48
2024/01/28 06:01:01;;;;;;;2.20;1.20;;;19.20;51.00;;;;;;4999176;28;20042;-49
2024/01/28 06:03:26;;;;;;;1.60;0.90;;;19.20;51.00;;;;;;4993686;28;20784;-47
2024/01/28 06:05:52;;;;;;;1.40;0.90;;;19.20;51.00;;;;;;4992090;28;20113;-46
2024/01/28 06:08:17;;;;;;;1.63;0.90;;;19.20;51.10;;;;;;4998469;28;20053;-50
2024/01/28 06:10:43;;;;;;;1.33;1.00;;;19.10;51.00;;;;;;4993044;28;20035;-57
2024/01/28 06:13:09;;;;;;;2.20;1.10;;;19.10;51.10;;;;;;4991474;28;20443;-55
2024/01/28 06:15:34;;;;;;;1.75;0.90;;;19.10;51.10;;;;;;4998245;28;20037;-51
2024/01/28 06:18:01;;;;;;;2.13;0.85;;;19.10;51.20;;;;;;4996714;28;20030;-49
2024/01/28 06:20:26;;;;;;;1.77;0.88;;;19.00;51.20;;;;;;4993045;28;20042;-49
2024/01/28 06:22:52;;;;;;;1.30;1.00;;;19.00;51.10;;;;;;4983685;28;20396;-52
2024/01/28 06:25:18;;;;;;;1.30;0.82;;;19.00;51.20;;;;;;4994531;28;20046;-49
2024/01/28 06:27:44;;;;;;;1.20;0.80;;;19.00;51.30;;;;;;4997800;28;20475;-49
2024/01/28 06:30:10;;;;;;;2.60;1.02;;;19.00;51.30;;;;;;4996178;28;20026;-50
2024/01/28 06:32:36;;;;;;;1.67;1.00;;;19.00;51.30;;;;;;4998484;28;20431;-49
2024/01/28 06:35:01;;;;;;;0.80;0.68;;;18.90;51.30;;;;;;4994969;28;20041;-51
2024/01/28 06:37:27;;;;;;;1.15;0.90;;;19.00;51.40;;;;;;4984303;28;20042;-50
2024/01/28 06:39:53;;;;;;;1.25;0.85;;;19.00;51.50;;;;;;4998925;28;20093;-50
2024/01/28 06:42:19;;;;;;;2.03;1.13;;;18.90;51.30;;;;;;5004086;28;20037;-50
2024/01/28 06:44:44;;;;;;;1.35;0.82;;;18.90;51.40;;;;;;5005609;28;20476;-51
2024/01/28 06:47:10;;;;;;;1.85;1.00;;;18.90;51.40;;;;;;5006015;28;20042;-52
2024/01/28 06:49:35;;;;;;;1.50;0.90;;;18.90;51.40;;;;;;4999143;28;20103;-50
2024/01/28 06:52:01;;;;;;;1.58;0.85;;;18.90;51.40;;;;;;4996494;28;20034;-50
2024/01/28 06:54:27;;;;;;;2.15;1.10;;;18.90;51.40;;;;;;4992878;28;20140;-49
2024/01/28 06:56:52;;;;;;;0.85;0.70;;;18.80;51.30;;;;;;4996849;28;20113;-48
2024/01/28 06:59:18;;;;;;;1.13;0.82;;;18.80;51.40;;;;;;4995697;28;20462;-50
2024/01/28 07:01:45;;;;;;;1.92;0.98;;;18.80;51.50;;;;;;4990625;28;20030;-47
2024/01/28 07:04:10;;;;;;;2.22;1.00;;;18.80;51.50;;;;;;4989636;28;20032;-55
2024/01/28 07:06:36;;;;;;;1.10;0.77;;;18.80;51.50;;;;;;4997180;28;20400;-49
2024/01/28 07:09:01;;;;;;;1.60;0.88;;;18.80;51.50;;;;;;4997179;28;20409;-48
2024/01/28 07:11:27;;;;;;;1.48;0.82;;;18.80;51.50;;;;;;5002506;28;20036;-49
2024/01/28 07:13:52;;;;;;;1.92;1.10;;;18.80;51.50;;;;;;5001702;28;20076;-55
2024/01/28 07:16:19;;;;;;;1.60;1.13;;;18.80;51.50;;;;;;4995472;28;20732;-50
2024/01/28 07:18:45;;;;;;;1.80;1.63;;;18.80;51.50;;;;;;5004905;28;20279;-49
2024/01/28 07:21:11;;;;;;;1.35;0.80;;;18.80;51.50;;;;;;5002225;28;20037;-49
2024/01/28 07:23:36;;;;;;;3.63;1.27;;;18.80;51.60;;;;;;5005194;28;20437;-48
2024/01/28 07:26:02;;;;;;;1.55;0.95;;;18.80;51.50;;;;;;5003179;28;20075;-50
2024/01/28 07:28:28;;;;;;;2.90;1.20;;;18.80;51.50;;;;;;5003227;28;20201;-49
2024/01/28 07:30:54;;;;;;;1.38;0.82;;;18.80;51.50;;;;;;4996848;28;20121;-50
2024/01/28 07:33:19;;;;;;;1.85;1.20;;;18.70;51.50;;;;;;5004802;28;20042;-49
2024/01/28 07:35:44;;;;;;;1.17;0.80;;;18.80;51.50;;;;;;5000589;28;20422;-49
2024/01/28 07:38:10;;;;;;;1.23;0.90;;;18.80;51.40;;;;;;5001825;28;20029;-48
2024/01/28 07:40:35;;;;;;;1.15;0.63;;;18.80;51.50;;;;;;5005127;28;20038;-50
2024/01/28 07:43:01;;;;;;;2.17;1.00;;;18.80;51.40;;;;;;5000468;28;20045;-48
2024/01/28 07:45:27;;;;;;;1.55;1.00;;;18.80;51.40;;;;;;4998844;28;20087;-49
2024/01/28 07:47:52;;;;;;;4.65;0.90;;;18.80;51.40;;;;;;5005294;28;20084;-50
2024/01/28 07:50:18;;;;;;;1.95;0.98;;;18.80;52.10;;;;;;5000809;28;20123;-49
2024/01/28 07:52:44;;;;;;;1.70;0.85;;;18.70;51.40;;;;;;4998771;28;20083;-49
2024/01/28 07:55:11;;;;;;;1.75;0.90;;;18.80;51.50;;;;;;5001091;28;20041;-51
2024/01/28 07:57:36;;;;;;;1.63;1.10;;;18.70;51.60;;;;;;4999675;28;20037;-48
2024/01/28 08:00:04;;;;;;;1.10;0.80;;;18.70;51.50;;;;;;5002813;28;20177;-52
2024/01/28 08:02:30;;;;;;;2.47;0.95;;;18.70;51.50;;;;;;5005205;28;20486;-48
2024/01/28 08:04:56;;;;;;;1.67;1.00;;;18.70;51.60;;;;;;4999310;28;20034;-49
2024/01/28 08:07:21;;;;;;;3.45;1.05;;;18.70;51.60;;;;;;5001079;28;20042;-49
2024/01/28 08:09:47;;;;;;;2.42;1.30;;;18.70;51.60;;;;;;5004205;28;20034;-48
2024/01/28 08:12:12;;;;;;;5.40;1.88;;;18.60;51.60;;;;;;4998042;28;20030;-47
2024/01/28 08:14:38;;;;;;;3.72;1.65;;;18.60;51.60;;;;;;4998986;28;20494;-47
2024/01/28 08:17:03;;;;;;;2.92;1.65;;;18.60;51.80;;;;;;4995755;28;20042;-48
2024/01/28 08:19:30;;;;;;;2.33;1.45;;;18.60;51.80;;;;;;4994427;28;20081;-51
2024/01/28 08:21:55;;;;;;;2.78;1.65;;;18.50;51.90;;;;;;4997625;28;20738;-47
2024/01/28 08:24:21;;;;;;;3.97;2.05;;;18.50;51.90;;;;;;4981658;28;20026;-48
2024/01/28 08:26:46;;;;;;;4.13;1.73;;;18.50;52.00;;;;;;4991456;28;20034;-49
2024/01/28 08:29:12;;;;;;;5.43;1.83;;;18.40;52.10;;;;;;5003869;28;20476;-48
2024/01/28 08:31:37;;;;;;;4.57;2.17;;;18.40;52.20;;;;;;4998489;28;20030;-48
2024/01/28 08:34:03;;;;;;;5.32;2.38;;;18.40;52.20;;;;;;4986660;28;20045;-49
2024/01/28 08:36:28;;;;;;;4.57;2.35;;;18.30;52.30;;;;;;5001119;28;20428;-48
2024/01/28 08:38:54;;;;;;;4.43;2.20;;;18.30;52.30;;;;;;4999246;28;20171;-48
2024/01/28 08:41:21;;;;;;;6.28;1.95;;;18.30;52.40;;;;;;4992722;28;20488;-50
2024/01/28 08:43:46;;;;;;;4.65;2.47;;;18.30;52.50;;;;;;4999754;28;20038;-51
2024/01/28 08:46:11;;;;;;;3.25;2.05;;;18.30;52.50;;;;;;4996478;28;20059;-49
2024/01/28 08:48:37;;;;;;;4.30;2.20;;;18.20;52.50;;;;;;4992650;28;20050;-50
2024/01/28 08:51:02;;;;;;;3.58;2.47;;;18.30;52.50;;;;;;5001848;28;20508;-52
2024/01/28 08:53:29;;;;;;;4.55;2.25;;;18.30;52.30;;;;;;4997423;28;20117;-50
2024/01/28 08:55:55;;;;;;;5.35;2.85;;;18.40;52.20;;;;;;4990561;28;20027;-50
2024/01/28 08:58:21;;;;;;;3.60;1.95;;;18.50;51.90;;;;;;4999968;28;20034;-52
2024/01/28 09:00:47;;;;;;;4.43;2.00;;;18.60;51.60;;;;;;4999695;28;20041;-49
2024/01/28 09:03:12;;;;;;;4.68;2.53;;;18.80;51.90;;;;;;4994536;28;20030;-50
2024/01/28 09:05:38;;;;;;;3.75;2.50;;;18.90;51.00;;;;;;4999622;28;20029;-50
2024/01/28 09:08:03;;;;;;;7.13;2.85;;;19.00;50.70;;;;;;4995774;28;20042;-49
2024/01/28 09:10:29;;;;;;;6.35;2.28;;;19.20;50.40;;;;;;4991873;28;20030;-48
2024/01/28 09:12:54;;;;;;;4.28;2.45;;;19.40;50.20;;;;;;4982578;28;20516;-49
2024/01/28 09:15:20;;;;;;;4.82;2.08;;;19.50;50.00;;;;;;4995635;28;20037;-49
2024/01/28 09:17:46;;;;;;;4.63;2.25;;;19.60;49.80;;;;;;4996542;28;20029;-52
2024/01/28 09:20:11;;;;;;;3.42;2.60;;;19.70;49.50;;;;;;5001844;28;20037;-49
2024/01/28 09:22:37;;;;;;;3.78;2.38;;;19.80;49.40;;;;;;5000455;28;20030;-51
2024/01/28 09:25:03;;;;;;;5.53;2.30;;;19.90;49.20;;;;;;5000886;28;20661;-51
2024/01/28 09:27:29;;;;;;;3.45;2.13;;;20.00;49.10;;;;;;4999527;28;20035;-50
2024/01/28 09:29:55;;;;;;;5.80;2.45;;;20.10;49.00;;;;;;4998920;28;20029;-49
2024/01/28 09:32:21;;;;;;;5.70;2.45;;;20.20;48.90;;;;;;4993844;28;20092;-50
2024/01/28 09:34:46;;;;;;;3.55;2.15;;;20.20;48.80;;;;;;4999832;28;20074;-50
2024/01/28 09:37:13;;;;;;;3.97;2.10;;;20.30;48.70;;;;;;4976080;28;20039;-51
2024/01/28 09:39:38;;;;;;;6.53;2.33;;;20.40;48.60;;;;;;4996591;28;20439;-50
2024/01/28 09:42:32;;;;;;;4.80;2.38;;;20.40;48.50;;;;;;4995768;28;20022;-50
2024/01/28 09:44:58;;;;;;;5.15;2.25;;;20.50;48.50;;;;;;4984658;28;20038;-47
2024/01/28 09:47:24;;;;;;;6.13;2.42;;;20.50;48.60;;;;;;4999958;28;20091;-49
2024/01/28 09:49:51;;;;;;;4.18;2.50;;;20.50;48.60;;;;;;4999139;28;20041;-48
2024/01/28 09:52:16;;;;;;;4.35;2.40;;;20.40;48.60;;;;;;4991431;28;20026;-52
2024/01/28 09:54:44;;;;;;;6.85;2.50;;;20.40;48.70;;;;;;4998914;28;20050;-49
2024/01/28 09:57:11;;;;;;;5.60;2.83;;;20.40;49.40;;;;;;4993657;28;20055;-49
2024/01/28 09:59:37;;;;;;;6.57;3.13;;;20.30;48.90;;;;;;4990254;28;20499;-47
2024/01/28 10:02:04;;;;;;;4.13;2.10;;;20.30;49.00;;;;;;4999759;28;20088;-49
2024/01/28 10:04:30;;;;;;;4.95;2.10;;;20.30;49.10;;;;;;4995570;28;20026;-50
2024/01/28 10:06:58;;;;;;;5.38;2.45;;;20.20;49.20;;;;;;4983779;28;20076;-53
2024/01/28 10:09:24;;;;;;;3.28;1.98;;;20.10;49.30;;;;;;4995977;28;20027;-46
2024/01/28 10:11:51;;;;;;;3.40;1.80;;;20.10;49.50;;;;;;4976604;28;20034;-48
2024/01/28 10:14:17;;;;;;;4.60;2.30;;;20.10;49.60;;;;;;4992180;28;20076;-49
2024/01/28 10:16:45;;;;;;;7.07;2.88;;;20.00;49.70;;;;;;4997582;28;20037;-50
2024/01/28 10:19:11;;;;;;;4.57;2.60;;;19.90;49.80;;;;;;4992950;28;20400;-49
2024/01/28 10:21:36;;;;;;;4.55;1.92;;;19.80;50.00;;;;;;5016554;23;20493;-48
2024/01/28 10:24:02;;;;;;;5.43;2.30;;;19.70;50.10;;;;;;5017462;28;20628;-49
2024/01/28 10:26:28;;;;;;;4.70;2.10;;;19.70;50.20;;;;;;5013929;28;20656;-51
2024/01/28 10:28:53;;;;;;;3.97;1.88;;;19.60;50.30;;;;;;5014471;28;20104;-47
2024/01/28 10:31:22;;;;;;;4.18;2.28;;;19.60;50.50;;;;;;5017283;28;20037;-48
2024/01/28 10:33:49;;;;;;;4.85;2.05;;;19.50;50.60;;;;;;5013142;28;20050;-47
2024/01/28 10:36:17;;;;;;;2.63;1.85;;;19.40;50.60;;;;;;5017691;28;20632;-50
2024/01/28 10:38:46;;;;;;;4.68;1.92;;;19.40;50.80;;;;;;5015424;28;20025;-48
2024/01/28 10:41:18;;;;;;;5.32;2.05;;;19.30;50.80;;;;;;5012145;28;20640;-49
2024/01/28 10:44:07;;;;;;;4.00;2.05;;;19.30;50.90;;;;;;5013609;28;20540;-47
2024/01/28 10:46:41;;;;;;;4.95;1.92;;;19.20;51.00;;;;;;4994862;28;20108;-52
2024/01/28 10:49:09;;;;;;;3.65;2.17;;;19.10;51.10;;;;;;5009443;28;20113;-48
2024/01/28 10:51:39;;;;;;;3.20;1.83;;;19.10;51.10;;;;;;5019990;28;20770;-50
2024/01/28 10:54:09;;;;;;;3.72;2.08;;;19.00;51.20;;;;;;5014048;28;20029;-47
2024/01/28 10:56:37;;;;;;;4.15;2.10;;;19.00;51.30;;;;;;5012512;28;20446;-48
2024/01/28 10:59:03;;;;;;;5.72;2.08;;;19.00;51.30;;;;;;5017677;28;20033;-47
2024/01/28 11:01:29;;;;;;;2.75;1.55;;;18.90;51.40;;;;;;5014211;28;20027;-47
2024/01/28 11:03:56;;;;;;;2.58;1.65;;;18.90;51.50;;;;;;5011742;28;20055;-49
2024/01/28 11:06:24;;;;;;;2.67;1.58;;;18.90;51.50;;;;;;5016936;28;20036;-49
2024/01/28 11:08:54;;;;;;;3.25;1.70;;;18.90;51.50;;;;;;5012252;28;20038;-50
2024/01/28 11:11:19;;;;;;;3.08;1.60;;;18.80;51.60;;;;;;5013563;28;20410;-49
2024/01/28 11:13:46;;;;;;;2.63;1.83;;;18.80;51.60;;;;;;5016215;28;20036;-50
2024/01/28 11:16:14;;;;;;;2.85;1.73;;;18.80;51.50;;;;;;5011535;28;20678;-57
2024/01/28 11:18:39;;;;;;;4.00;1.75;;;18.90;51.60;;;;;;5012920;28;20034;-48
2024/01/28 11:21:12;;;;;;;2.50;1.85;;;18.90;51.50;;;;;;5014111;28;20494;-48
2024/01/28 11:23:47;;;;;;;2.60;1.73;;;18.90;51.60;;;;;;5010862;28;20037;-52
2024/01/28 11:26:17;;;;;;;3.38;1.63;;;18.90;51.50;;;;;;5013595;28;20041;-47
2024/01/28 11:28:46;;;;;;;3.50;1.92;;;18.90;51.40;;;;;;5016416;28;20442;-52
2024/01/28 11:31:32;;;;;;;3.70;2.03;;;19.00;51.40;;;;;;5010093;28;20057;-50
2024/01/28 11:34:07;;;;;;;;;;;19.00;51.30;;;;;;5015556;28;20045;-49
2024/01/28 11:36:36;;;;;;;2.03;1.50;;;19.00;51.20;;;;;;5013476;28;19909;-51
2024/01/28 11:39:05;;;;;;;2.92;1.70;;;19.10;51.10;;;;;;5012360;28;20179;-51
2024/01/28 11:41:38;;;;;;;3.30;1.70;;;19.10;50.90;;;;;;5015219;28;20022;-48
2024/01/28 11:44:07;;;;;;;3.33;1.55;;;19.20;50.90;;;;;;5003218;28;20037;-53
2024/01/28 11:46:34;;;;;;;3.20;1.60;;;19.20;50.80;;;;;;5011973;28;20025;-48
2024/01/28 11:49:00;;;;;;;1.67;1.33;;;19.20;50.70;;;;;;5016663;28;20403;-51
2024/01/28 11:51:28;;;;;;;2.28;1.42;;;19.30;50.60;;;;;;5016975;28;20022;-49
2024/01/28 11:53:54;;;;;;;2.55;1.30;;;19.30;50.60;;;;;;5019364;28;20123;-48
2024/01/28 11:56:19;;;;;;;2.15;1.40;;;19.30;50.50;;;;;;5006918;28;20124;-49
2024/01/28 11:58:46;;;;;;;2.72;1.58;;;19.40;50.50;;;;;;5014837;28;20034;-49
2024/01/28 12:01:11;;;;;;;2.00;1.40;;;19.40;50.50;;;;;;5005594;28;20041;-49
2024/01/28 12:03:37;;;;;;;2.70;1.50;;;19.40;50.40;;;;;;5019231;28;20041;-49
2024/01/28 12:06:03;;;;;;;2.05;1.73;;;19.40;50.30;;;;;;5013298;28;20403;-50
2024/01/28 12:08:29;;;;;;;2.50;1.67;;;19.50;50.30;;;;;;5020383;28;20037;-49
2024/01/28 12:11:00;;;;;;;2.40;1.42;;;19.50;50.20;;;;;;5018469;28;20077;-48
2024/01/28 12:13:25;;;;;;;3.20;1.20;;;19.50;50.20;;;;;;5014510;28;20551;-49
2024/01/28 12:15:51;;;;;;;2.05;1.40;;;19.50;50.10;;;;;;5020505;28;20124;-50
2024/01/28 12:18:17;;;;;;;1.75;1.30;;;19.60;50.10;;;;;;5018704;28;20608;-49
2024/01/28 12:20:42;;;;;;;3.33;1.70;;;19.60;50.10;;;;;;5013788;28;20045;-50
2024/01/28 12:23:08;;;;;;;4.13;1.50;;;19.60;50.00;;;;;;5017702;28;20610;-49
2024/01/28 12:25:34;;;;;;;2.05;1.25;;;19.60;50.00;;;;;;5018864;28;20559;-49
2024/01/28 12:28:00;;;;;;;2.05;1.45;;;19.60;50.00;;;;;;5015314;28;20063;-49
2024/01/28 12:30:26;;;;;;;2.80;1.40;;;19.60;49.90;;;;;;5015542;28;20037;-50
2024/01/28 12:32:51;;;;;;;1.67;1.20;;;19.70;50.00;;;;;;5018508;28;20113;-50
2024/01/28 12:35:17;;;;;;;1.90;1.20;;;19.60;49.90;;;;;;5013758;28;20041;-49
2024/01/28 12:37:42;;;;;;;2.85;1.10;;;19.70;50.00;;;;;;5006560;28;20034;-53
2024/01/28 12:40:09;;;;;;;2.45;1.70;;;19.70;49.90;;;;;;5016801;28;20437;-50
2024/01/28 12:42:35;;;;;;;2.17;1.30;;;19.70;49.90;;;;;;5015800;28;20045;-49